createdAt,value
2024-04-15T00:01:08.270Z,10.82
2024-04-15T00:03:36.097Z,10.57
2024-04-15T00:06:03.844Z,10.55
2024-04-15T00:08:31.626Z,10.62
2024-04-15T00:11:03.454Z,10.47
2024-04-15T00:13:31.212Z,10.31
2024-04-15T00:15:59.939Z,10.35
2024-04-15T00:18:27.958Z,10.23
2024-04-15T00:21:00.505Z,10.18
2024-04-15T00:23:29.203Z,10.32
2024-04-15T00:26:00.498Z,10.44
2024-04-15T00:28:30.194Z,10.47
2024-04-15T00:30:57.889Z,10.52
2024-04-15T00:33:25.843Z,10.55
2024-04-15T00:35:53.646Z,10.61
2024-04-15T00:38:21.416Z,10.47
2024-04-15T00:40:49.151Z,10.42
2024-04-15T00:43:17.084Z,10.21
2024-04-15T00:45:44.966Z,10.29
2024-04-15T00:48:19.596Z,10.48
2024-04-15T00:50:49.867Z,10.61
2024-04-15T00:53:22.710Z,10.57
2024-04-15T00:55:54.426Z,10.58
2024-04-15T00:58:23.833Z,10.28
2024-04-15T01:00:53.353Z,10.48
2024-04-15T01:03:23.328Z,10.41
2024-04-15T01:05:51.873Z,10.26
2024-04-15T01:08:19.747Z,10.43
2024-04-15T01:10:55.622Z,10.50
2024-04-15T01:13:28.432Z,10.47
2024-04-15T01:16:00.567Z,10.50
2024-04-15T01:18:33.539Z,10.82
2024-04-15T01:21:03.953Z,10.56
2024-04-15T01:23:32.870Z,10.47
2024-04-15T01:26:04.612Z,10.49
2024-04-15T01:28:32.282Z,10.57
2024-04-15T01:30:59.992Z,10.52
2024-04-15T01:33:28.613Z,10.60
2024-04-15T01:35:56.299Z,10.43
2024-04-15T01:38:26.954Z,10.21
2024-04-15T01:40:56.012Z,10.32
2024-04-15T01:43:26.798Z,10.33
2024-04-15T01:45:55.069Z,10.42
2024-04-15T01:48:23.004Z,10.36
2024-04-15T01:50:50.794Z,10.39
2024-04-15T01:53:19.304Z,10.05
2024-04-15T01:55:48.155Z,10.34
2024-04-15T01:58:18.146Z,10.23
2024-04-15T02:00:45.974Z,10.17
2024-04-15T02:03:17.621Z,10.26
2024-04-15T02:05:45.304Z,10.32
2024-04-15T02:08:12.967Z,10.24
2024-04-15T02:10:42.488Z,10.31
2024-04-15T02:13:10.388Z,10.29
2024-04-15T02:15:39.286Z,10.28
2024-04-15T02:18:07.071Z,10.11
2024-04-15T02:20:34.779Z,10.30
2024-04-15T02:23:02.496Z,10.32
2024-04-15T02:25:30.418Z,10.21
2024-04-15T02:27:58.096Z,10.11
2024-04-15T02:30:25.841Z,9.99
2024-04-15T02:32:53.577Z,9.79
2024-04-15T02:35:21.311Z,9.83
2024-04-15T02:37:48.965Z,9.78
2024-04-15T02:40:16.735Z,9.76
2024-04-15T02:42:44.438Z,9.73
2024-04-15T02:45:12.515Z,9.70
2024-04-15T02:47:40.706Z,9.70
2024-04-15T02:50:08.784Z,9.58
2024-04-15T02:52:36.445Z,9.64
2024-04-15T02:55:04.311Z,9.77
2024-04-15T02:57:32.022Z,9.69
2024-04-15T02:59:59.780Z,9.49
2024-04-15T03:02:28.090Z,9.48
2024-04-15T03:04:57.411Z,9.62
2024-04-15T03:07:25.127Z,9.46
2024-04-15T03:09:57.491Z,9.56
2024-04-15T03:12:25.369Z,9.55
2024-04-15T03:14:53.097Z,9.62
2024-04-15T03:17:21.554Z,9.56
2024-04-15T03:19:54.444Z,9.44
2024-04-15T03:22:25.133Z,9.45
2024-04-15T03:24:52.795Z,9.45
2024-04-15T03:27:20.566Z,9.44
2024-04-15T03:29:49.004Z,9.36
2024-04-15T03:32:16.694Z,9.23
2024-04-15T03:34:44.536Z,9.27
2024-04-15T03:37:12.345Z,9.46
2024-04-15T03:39:40.041Z,9.37
2024-04-15T03:42:07.685Z,9.43
2024-04-15T03:44:40.018Z,9.19
2024-04-15T03:47:11.853Z,9.26
2024-04-15T03:49:40.341Z,9.37
2024-04-15T03:52:08.073Z,9.33
2024-04-15T03:55:01.681Z,9.29
2024-04-15T03:57:31.993Z,9.40
2024-04-15T03:59:59.764Z,9.47
2024-04-15T04:02:30.590Z,9.44
2024-04-15T04:04:58.414Z,9.12
2024-04-15T04:07:26.161Z,9.28
2024-04-15T04:09:54.654Z,9.31
2024-04-15T04:12:22.342Z,9.43
2024-04-15T04:14:50.045Z,9.32
2024-04-15T04:17:17.831Z,9.36
2024-04-15T04:19:45.545Z,9.46
2024-04-15T04:22:13.252Z,9.46
2024-04-15T04:24:42.428Z,9.44
2024-04-15T04:27:10.087Z,9.47
2024-04-15T04:29:37.983Z,9.41
2024-04-15T04:32:07.052Z,9.51
2024-04-15T04:34:37.580Z,9.48
2024-04-15T04:37:05.355Z,9.35
2024-04-15T04:39:33.033Z,9.44
2024-04-15T04:42:00.814Z,9.36
2024-04-15T04:44:28.662Z,9.39
2024-04-15T04:46:58.742Z,9.50
2024-04-15T04:49:26.306Z,9.53
2024-04-15T04:51:54.073Z,9.35
2024-04-15T04:54:22.517Z,9.30
2024-04-15T04:57:15.463Z,9.33
2024-04-15T04:59:43.272Z,9.43
2024-04-15T05:02:12.758Z,9.40
2024-04-15T05:04:42.145Z,9.35
2024-04-15T05:10:05.318Z,9.31
2024-04-15T05:12:33.775Z,9.44
2024-04-15T05:15:02.474Z,9.40
2024-04-15T05:17:30.233Z,9.10
2024-04-15T05:19:58.179Z,9.45
2024-04-15T05:22:25.927Z,9.50
2024-04-15T05:24:55.863Z,9.56
2024-04-15T05:27:25.537Z,9.63
2024-04-15T05:29:55.707Z,9.76
2024-04-15T05:32:23.532Z,9.83
2024-04-15T05:34:52.140Z,9.83
2024-04-15T05:37:19.985Z,9.80
2024-04-15T05:39:48.897Z,9.79
2024-04-15T05:42:16.781Z,9.86
2024-04-15T05:44:46.072Z,9.99
2024-04-15T05:47:13.715Z,9.98
2024-04-15T05:49:43.917Z,10.10
2024-04-15T05:52:11.621Z,9.90
2024-04-15T05:54:39.425Z,9.96
2024-04-15T05:57:32.794Z,10.21
2024-04-15T06:00:00.609Z,9.98
2024-04-15T06:02:28.307Z,10.22
2024-04-15T06:05:00.003Z,10.22
2024-04-15T06:07:28.536Z,10.31
2024-04-15T06:09:56.254Z,10.45
2024-04-15T06:12:26.497Z,10.47
2024-04-15T06:14:54.303Z,10.62
2024-04-15T06:17:22.096Z,10.48
2024-04-15T06:19:50.588Z,10.39
2024-04-15T06:22:19.844Z,10.57
2024-04-15T06:24:47.885Z,10.51
2024-04-15T06:27:17.119Z,10.56
2024-04-15T06:29:44.771Z,10.54
2024-04-15T06:32:12.506Z,10.55
2024-04-15T06:34:40.184Z,10.54
2024-04-15T06:37:07.968Z,10.62
2024-04-15T06:39:35.898Z,10.60
2024-04-15T06:42:04.383Z,10.72
2024-04-15T06:44:36.762Z,10.65
2024-04-15T06:47:04.736Z,10.67
2024-04-15T06:49:33.351Z,10.97
2024-04-15T06:52:02.882Z,11.12
2024-04-15T06:54:30.560Z,11.26
2024-04-15T06:56:58.239Z,11.16
2024-04-15T06:59:33.048Z,11.16
2024-04-15T07:02:04.797Z,11.09
2024-04-15T07:04:32.539Z,11.19
2024-04-15T07:07:02.256Z,11.20
2024-04-15T07:09:29.952Z,11.37
2024-04-15T07:11:58.458Z,11.25
2024-04-15T07:14:26.110Z,11.16
2024-04-15T07:16:54.014Z,11.14
2024-04-15T07:19:22.721Z,11.10
2024-04-15T07:21:50.505Z,11.11
2024-04-15T07:24:18.230Z,11.23
2024-04-15T07:26:49.682Z,11.27
2024-04-15T07:29:17.278Z,11.31
2024-04-15T07:31:45.059Z,11.35
2024-04-15T07:34:12.807Z,11.31
2024-04-15T07:36:40.564Z,11.29
2024-04-15T07:39:09.609Z,11.19
2024-04-15T07:41:38.099Z,11.38
2024-04-15T07:44:06.005Z,11.53
2024-04-15T07:46:36.125Z,11.89
2024-04-15T07:49:05.664Z,11.86
2024-04-15T07:51:33.398Z,12.07
2024-04-15T07:54:01.699Z,11.91
2024-04-15T07:56:29.351Z,11.60
2024-04-15T07:58:57.008Z,11.72
2024-04-15T08:01:24.812Z,11.66
2024-04-15T08:03:53.489Z,11.54
2024-04-15T08:06:21.232Z,11.70
2024-04-15T08:08:48.878Z,11.55
2024-04-15T08:11:18.475Z,11.34
2024-04-15T08:13:46.175Z,11.38
2024-04-15T08:16:14.132Z,11.54
2024-04-15T08:18:41.900Z,11.41
2024-04-15T08:21:09.647Z,11.44
2024-04-15T08:23:37.548Z,11.50
2024-04-15T08:26:08.610Z,11.41
2024-04-15T08:28:37.169Z,11.47
2024-04-15T08:31:05.092Z,11.36
2024-04-15T08:33:33.045Z,11.32
2024-04-15T08:36:02.589Z,11.54
2024-04-15T08:38:31.077Z,11.57
2024-04-15T08:41:01.991Z,11.75
2024-04-15T08:43:30.755Z,11.46
2024-04-15T08:46:05.115Z,11.78
2024-04-15T08:48:34.347Z,11.70
2024-04-15T08:51:02.205Z,11.76
2024-04-15T08:53:31.636Z,12.06
2024-04-15T08:55:59.872Z,12.34
2024-04-15T08:58:27.690Z,12.45
2024-04-15T09:00:55.776Z,12.77
2024-04-15T09:03:25.062Z,12.75
2024-04-15T09:05:52.771Z,12.73
2024-04-15T09:08:22.156Z,12.73
2024-04-15T09:10:50.299Z,12.57
2024-04-15T09:13:18.092Z,12.73
2024-04-15T09:15:51.271Z,12.74
2024-04-15T09:18:20.657Z,12.85
2024-04-15T09:20:58.131Z,13.00
2024-04-15T09:23:30.466Z,13.19
2024-04-15T09:25:58.474Z,13.11
2024-04-15T09:28:27.757Z,12.97
2024-04-15T09:33:50.714Z,13.25
2024-04-15T09:36:20.030Z,13.30
2024-04-15T09:38:51.653Z,14.01
2024-04-15T09:41:21.301Z,13.96
2024-04-15T09:43:50.400Z,13.73
2024-04-15T09:46:19.925Z,13.55
2024-04-15T09:48:53.756Z,13.38
2024-04-15T09:51:25.100Z,13.33
2024-04-15T09:53:55.057Z,12.95
2024-04-15T09:56:30.759Z,13.10
2024-04-15T09:59:00.188Z,13.03
2024-04-15T10:01:32.629Z,13.19
2024-04-15T10:04:12.092Z,13.23
2024-04-15T10:06:53.286Z,13.63
2024-04-15T10:09:22.220Z,13.53
2024-04-15T10:11:51.446Z,13.42
2024-04-15T10:14:21.220Z,13.38
2024-04-15T10:16:50.988Z,13.68
2024-04-15T10:19:35.590Z,13.76
2024-04-15T10:22:06.034Z,13.45
2024-04-15T10:24:33.972Z,13.29
2024-04-15T10:27:05.272Z,13.38
2024-04-15T10:29:34.791Z,13.54
2024-04-15T10:32:02.510Z,13.75
2024-04-15T10:34:31.833Z,13.63
2024-04-15T10:36:59.607Z,13.79
2024-04-15T10:39:29.340Z,13.69
2024-04-15T10:41:58.608Z,14.13
2024-04-15T10:44:26.317Z,14.44
2024-04-15T10:46:53.951Z,14.48
2024-04-15T10:49:22.636Z,14.67
2024-04-15T10:51:50.518Z,14.54
2024-04-15T10:54:19.332Z,14.26
2024-04-15T10:56:49.236Z,14.20
2024-04-15T10:59:18.769Z,14.16
2024-04-15T11:01:51.097Z,13.80
2024-04-15T11:04:18.944Z,13.44
2024-04-15T11:06:50.100Z,13.60
2024-04-15T11:09:17.963Z,13.57
2024-04-15T11:11:45.629Z,13.41
2024-04-15T11:14:21.747Z,13.73
2024-04-15T11:16:49.643Z,13.96
2024-04-15T11:19:18.072Z,13.98
2024-04-15T11:21:48.559Z,14.33
2024-04-15T11:24:17.482Z,14.54
2024-04-15T11:26:48.808Z,14.45
2024-04-15T11:29:17.905Z,14.02
2024-04-15T11:31:46.042Z,14.07
2024-04-15T11:34:17.385Z,14.25
2024-04-15T11:36:49.727Z,14.31
2024-04-15T11:42:10.354Z,14.89
2024-04-15T11:44:38.138Z,14.61
2024-04-15T11:47:08.884Z,14.33
2024-04-15T11:49:36.654Z,14.20
2024-04-15T11:52:07.650Z,14.19
2024-04-15T11:54:35.375Z,14.41
2024-04-15T11:57:03.163Z,14.37
2024-04-15T11:59:31.524Z,14.47
2024-04-15T12:01:59.799Z,14.41
2024-04-15T12:04:27.878Z,14.49
2024-04-15T12:06:56.054Z,14.61
2024-04-15T12:09:25.991Z,14.86
2024-04-15T12:11:53.792Z,14.64
2024-04-15T12:14:21.468Z,14.36
2024-04-15T12:16:49.270Z,14.01
2024-04-15T12:19:17.080Z,14.25
2024-04-15T12:21:44.853Z,14.59
2024-04-15T12:24:12.507Z,14.75
2024-04-15T12:26:40.250Z,14.78
2024-04-15T12:29:09.885Z,14.93
2024-04-15T12:31:37.671Z,15.08
2024-04-15T12:34:05.443Z,14.93
2024-04-15T12:36:33.308Z,14.32
2024-04-15T12:39:00.988Z,14.38
2024-04-15T12:41:29.331Z,14.59
2024-04-15T12:43:57.037Z,14.47
2024-04-15T12:46:24.835Z,14.63
2024-04-15T12:48:52.796Z,14.52
2024-04-15T12:51:20.576Z,14.70
2024-04-15T12:53:48.210Z,14.81
2024-04-15T12:56:16.205Z,14.71
2024-04-15T12:58:47.319Z,14.54
2024-04-15T13:01:15.879Z,14.69
2024-04-15T13:03:43.700Z,14.74
2024-04-15T13:06:13.485Z,14.83
2024-04-15T13:08:41.232Z,15.21
2024-04-15T13:11:11.033Z,15.53
2024-04-15T13:13:40.690Z,15.53
2024-04-15T13:16:09.300Z,14.99
2024-04-15T13:18:38.157Z,14.46
2024-04-15T13:21:16.411Z,14.19
2024-04-15T13:23:45.853Z,14.01
2024-04-15T13:26:13.499Z,13.74
2024-04-15T13:28:46.679Z,13.81
2024-04-15T13:31:14.448Z,13.78
2024-04-15T13:33:42.528Z,13.74
2024-04-15T13:36:10.268Z,13.66
2024-04-15T13:38:38.436Z,13.45
2024-04-15T13:41:06.222Z,13.62
2024-04-15T13:43:34.136Z,13.67
2024-04-15T13:46:04.915Z,13.88
2024-04-15T13:48:33.611Z,13.82
2024-04-15T13:51:01.329Z,13.79
2024-04-15T13:53:29.066Z,13.79
2024-04-15T13:55:56.832Z,13.63
2024-04-15T13:58:24.712Z,13.73
2024-04-15T14:00:55.510Z,13.56
2024-04-15T14:03:23.487Z,13.55
2024-04-15T14:05:52.411Z,13.51
2024-04-15T14:08:20.636Z,13.45
2024-04-15T14:10:49.068Z,13.64
2024-04-15T14:13:16.963Z,13.77
2024-04-15T14:15:45.106Z,13.52
2024-04-15T14:18:13.002Z,13.65
2024-04-15T14:20:40.699Z,13.92
2024-04-15T14:23:08.396Z,13.97
2024-04-15T14:25:37.628Z,14.04
2024-04-15T14:28:06.565Z,14.02
2024-04-15T14:30:35.274Z,14.03
2024-04-15T14:33:03.018Z,13.69
2024-04-15T14:35:31.550Z,13.58
2024-04-15T14:37:59.770Z,13.55
2024-04-15T14:42:56.614Z,13.01
2024-04-15T14:45:24.359Z,12.56
2024-04-15T14:47:52.245Z,12.61
2024-04-15T14:50:19.918Z,12.06
2024-04-15T14:52:47.794Z,12.17
2024-04-15T14:55:15.562Z,12.30
2024-04-15T14:57:43.457Z,12.17
2024-04-15T15:00:19.413Z,12.28
2024-04-15T15:02:47.909Z,12.13
2024-04-15T15:05:15.664Z,11.98
2024-04-15T15:07:44.878Z,12.07
2024-04-15T15:10:13.641Z,12.03
2024-04-15T15:12:43.214Z,12.09
2024-04-15T15:15:13.437Z,12.07
2024-04-15T15:17:41.299Z,12.12
2024-04-15T15:20:09.738Z,12.18
2024-04-15T15:22:39.176Z,11.84
2024-04-15T15:25:07.453Z,11.57
2024-04-15T15:27:35.141Z,11.67
2024-04-15T15:30:02.841Z,11.46
2024-04-15T15:32:30.743Z,11.55
2024-04-15T15:34:58.481Z,11.49
2024-04-15T15:37:27.094Z,11.50
2024-04-15T15:39:54.818Z,11.54
2024-04-15T15:42:24.483Z,11.45
2024-04-15T15:44:54.699Z,11.46
2024-04-15T15:47:22.349Z,11.37
2024-04-15T15:49:50.481Z,11.69
2024-04-15T15:52:18.284Z,11.67
2024-04-15T15:54:47.921Z,11.74
2024-04-15T15:57:15.743Z,11.71
2024-04-15T15:59:44.305Z,11.49
2024-04-15T16:02:12.144Z,11.53
2024-04-15T16:04:40.745Z,11.52
2024-04-15T16:07:10.565Z,11.33
2024-04-15T16:09:39.293Z,10.96
2024-04-15T16:12:10.533Z,11.24
2024-04-15T16:14:38.987Z,9.94
2024-04-15T16:17:06.691Z,9.49
2024-04-15T16:19:36.743Z,8.58
2024-04-15T16:22:04.575Z,8.34
2024-04-15T16:24:32.474Z,7.96
2024-04-15T16:27:01.922Z,8.02
2024-04-15T16:29:30.511Z,7.79
2024-04-15T16:31:58.169Z,7.92
2024-04-15T16:34:28.152Z,7.81
2024-04-15T16:36:56.256Z,7.72
2024-04-15T16:39:24.813Z,7.79
2024-04-15T16:41:53.280Z,7.64
2024-04-15T16:44:21.028Z,7.30
2024-04-15T16:46:48.852Z,7.48
2024-04-15T16:49:21.528Z,7.35
2024-04-15T16:51:49.291Z,7.46
2024-04-15T16:54:17.904Z,7.12
2024-04-15T16:56:45.651Z,6.64
2024-04-15T16:59:14.174Z,6.40
2024-04-15T17:01:43.660Z,6.82
2024-04-15T17:04:12.460Z,6.73
2024-04-15T17:06:40.557Z,6.78
2024-04-15T17:09:11.042Z,6.92
2024-04-15T17:11:40.270Z,6.98
2024-04-15T17:14:08.867Z,6.71
2024-04-15T17:16:36.644Z,6.60
2024-04-15T17:19:06.227Z,6.91
2024-04-15T17:21:34.431Z,6.71
2024-04-15T17:24:02.260Z,6.96
2024-04-15T17:26:30.971Z,6.94
2024-04-15T17:29:02.691Z,6.79
2024-04-15T17:31:30.421Z,6.78
2024-04-15T17:34:00.994Z,6.96
2024-04-15T17:36:28.769Z,6.91
2024-04-15T17:38:57.478Z,7.06
2024-04-15T17:41:25.189Z,7.03
2024-04-15T17:43:53.012Z,6.82
2024-04-15T17:46:20.755Z,6.89
2024-04-15T17:48:51.754Z,6.82
2024-04-15T17:51:19.461Z,6.21
2024-04-15T17:53:49.868Z,6.87
2024-04-15T17:56:19.247Z,6.52
2024-04-15T17:58:49.015Z,6.95
2024-04-15T18:01:16.734Z,7.01
2024-04-15T18:03:45.998Z,6.72
2024-04-15T18:06:13.777Z,7.11
2024-04-15T18:08:43.706Z,6.42
2024-04-15T18:11:12.553Z,6.88
2024-04-15T18:13:41.132Z,6.90
2024-04-15T18:16:13.037Z,6.81
2024-04-15T18:18:42.024Z,6.77
2024-04-15T18:21:09.797Z,6.94
2024-04-15T18:23:39.032Z,6.73
2024-04-15T18:26:07.887Z,6.75
2024-04-15T18:28:37.652Z,6.77
2024-04-15T18:31:06.101Z,6.74
2024-04-15T18:33:33.923Z,6.88
2024-04-15T18:36:01.665Z,6.72
2024-04-15T18:38:29.376Z,7.02
2024-04-15T18:40:57.486Z,6.65
2024-04-15T18:43:25.277Z,6.81
2024-04-15T18:45:53.280Z,6.85
2024-04-15T18:48:22.385Z,6.92
2024-04-15T18:50:50.097Z,6.92
2024-04-15T18:53:17.871Z,6.98
2024-04-15T18:55:46.858Z,6.93
2024-04-15T18:58:14.695Z,6.92
2024-04-15T19:00:42.649Z,6.74
2024-04-15T19:03:11.950Z,6.58
2024-04-15T19:05:39.949Z,6.24
2024-04-15T19:08:08.122Z,6.18
2024-04-15T19:10:36.282Z,6.25
2024-04-15T19:13:04.284Z,6.25
2024-04-15T19:15:32.019Z,6.16
2024-04-15T19:17:59.739Z,6.37
2024-04-15T19:20:27.507Z,6.23
2024-04-15T19:22:55.193Z,6.07
2024-04-15T19:25:24.618Z,6.23
2024-04-15T19:27:52.591Z,6.14
2024-04-15T19:30:23.701Z,6.04
2024-04-15T19:32:53.167Z,5.52
2024-04-15T19:35:20.907Z,6.21
2024-04-15T19:37:48.672Z,6.18
2024-04-15T19:40:16.495Z,6.11
2024-04-15T19:42:45.059Z,6.18
2024-04-15T19:45:13.516Z,6.21
2024-04-15T19:47:42.667Z,6.09
2024-04-15T19:50:10.459Z,6.09
2024-04-15T19:52:40.478Z,6.12
2024-04-15T19:55:08.509Z,6.08
2024-04-15T19:57:36.288Z,6.25
2024-04-15T20:00:04.112Z,5.93
2024-04-15T20:02:32.939Z,6.25
2024-04-15T20:05:00.878Z,6.35
2024-04-15T20:07:29.625Z,6.24
2024-04-15T20:09:57.743Z,6.28
2024-04-15T20:12:29.073Z,6.30
2024-04-15T20:14:59.269Z,6.30
2024-04-15T20:17:41.671Z,6.06
2024-04-15T20:20:17.523Z,6.23
2024-04-15T20:22:46.051Z,6.48
2024-04-15T20:25:13.870Z,6.26
2024-04-15T20:27:42.504Z,6.37
2024-04-15T20:30:10.694Z,6.37
2024-04-15T20:32:41.051Z,6.39
2024-04-15T20:35:10.599Z,6.41
2024-04-15T20:37:40.828Z,6.30
2024-04-15T20:40:09.719Z,6.38
2024-04-15T20:42:37.971Z,6.28
2024-04-15T20:45:06.328Z,6.33
2024-04-15T20:47:34.163Z,6.14
2024-04-15T20:50:03.034Z,6.15
2024-04-15T20:52:31.843Z,6.31
2024-04-15T20:54:59.628Z,6.44
2024-04-15T20:57:30.098Z,6.24
2024-04-15T20:59:57.852Z,6.37
2024-04-15T21:02:25.616Z,6.27
2024-04-15T21:04:53.454Z,6.11
2024-04-15T21:07:21.309Z,6.24
2024-04-15T21:09:49.054Z,6.29
2024-04-15T21:12:16.875Z,6.19
2024-04-15T21:14:44.593Z,6.22
2024-04-15T21:17:12.628Z,6.03
2024-04-15T21:19:40.490Z,6.08
2024-04-15T21:22:08.380Z,6.27
2024-04-15T21:24:39.959Z,6.01
2024-04-15T21:27:10.175Z,6.18
2024-04-15T21:29:38.598Z,6.32
2024-04-15T21:32:06.669Z,6.07
2024-04-15T21:34:34.409Z,6.27
2024-04-15T21:37:02.154Z,6.19
2024-04-15T21:39:29.870Z,6.32
2024-04-15T21:41:57.599Z,6.03
2024-04-15T21:44:25.254Z,6.08
2024-04-15T21:46:53.346Z,6.17
2024-04-15T21:49:22.239Z,5.96
2024-04-15T21:51:50.012Z,6.01
2024-04-15T21:54:17.647Z,6.20
2024-04-15T21:56:45.364Z,6.14
2024-04-15T21:59:13.142Z,6.21
2024-04-15T22:01:40.852Z,6.29
2024-04-15T22:04:08.641Z,6.14
2024-04-15T22:06:36.336Z,6.28
2024-04-15T22:09:04.563Z,6.10
2024-04-15T22:11:32.614Z,6.30
2024-04-15T22:14:00.323Z,6.30
2024-04-15T22:16:28.391Z,6.23
2024-04-15T22:18:56.155Z,6.22
2024-04-15T22:21:23.825Z,6.25
2024-04-15T22:23:51.508Z,6.26
2024-04-15T22:26:19.177Z,6.32
2024-04-15T22:28:46.896Z,6.17
2024-04-15T22:31:14.756Z,5.95
2024-04-15T22:33:42.669Z,6.10
2024-04-15T22:36:10.405Z,6.11
2024-04-15T22:38:38.100Z,6.18
2024-04-15T22:41:05.907Z,6.32
2024-04-15T22:43:33.688Z,6.11
2024-04-15T22:46:01.488Z,6.31
2024-04-15T22:48:29.301Z,6.10
2024-04-15T22:50:56.947Z,6.23
2024-04-15T22:53:25.838Z,6.10
2024-04-15T22:55:59.833Z,6.23
2024-04-15T22:58:27.526Z,6.20
2024-04-15T23:00:55.292Z,6.18
2024-04-15T23:03:23.052Z,6.30
2024-04-15T23:05:50.704Z,6.12
2024-04-15T23:08:19.345Z,6.24
2024-04-15T23:10:50.177Z,6.13
2024-04-15T23:13:18.048Z,6.20
2024-04-15T23:15:45.735Z,6.13
2024-04-15T23:18:13.444Z,6.15
2024-04-15T23:20:41.101Z,6.15
2024-04-15T23:23:10.610Z,6.12
2024-04-15T23:25:38.315Z,6.30
2024-04-15T23:28:06.429Z,6.38
2024-04-15T23:30:34.282Z,6.14
2024-04-15T23:33:08.593Z,6.39
2024-04-15T23:35:36.280Z,6.23
2024-04-15T23:38:04.692Z,6.27
2024-04-15T23:40:33.633Z,6.36
2024-04-15T23:43:01.406Z,6.34
2024-04-15T23:45:56.623Z,6.36
2024-04-15T23:48:43.531Z,6.26
2024-04-15T23:51:33.347Z,6.33
2024-04-15T23:54:19.741Z,6.29
2024-04-15T23:57:06.499Z,6.40
2024-04-15T23:59:35.249Z,6.18
